Upstream stations:
Downstream station:
SHEF ID: MRIT2 Lake Meredith
STATION TYPE: RESERVOIR
Flood Pool: Bottom = 2941.30, Top = 2965.00
ELEVATION STORAGE INFLOW RELEASE WIND-DIRWIND-SPEED
ft ac-ft cfs cfs deg mph
Ccp-Rev Ccp-Rev Rev-Regi Rev-Regi Ccp-Rev Ccp-Rev
(US/Central)
05/23 00:00 2883.36 202804 0 0 123.00 15.00
05/23 01:00 2883.33 202604 0 0 116.00 13.00
05/23 02:00 2883.30 202404 0 0 117.00 13.00
05/23 03:00 2883.31 202471 0 0 114.00 10.00
05/23 04:00 2883.31 202471 0 0 120.00 11.00
05/23 05:00 2883.31 202471 0 0 106.00 7.00
05/23 06:00 2883.32 202538 0 0 116.00 8.00
05/23 07:00 2883.33 202604 0 0 ---- ----
05/23 08:00 2883.33 202604 0 0 ---- ----
05/23 09:00 2883.32 202538 0 0 ---- ----
05/23 10:00 2883.29 202337 0 0 ---- ----
05/23 11:00 2883.31 202471 0 0 ---- ----
05/23 12:00 2883.32 202538 0 0 ---- ----
05/23 13:00 2883.34 202671 0 0 ---- ----
05/23 14:00 2883.32 202538 0 0 ---- ----
05/23 15:00 2883.32 202538 0 0 ---- ----
05/23 16:00 2883.31 202471 0 0 ---- ----
05/23 17:00 2883.33 202604 0 0 ---- ----
05/23 18:00 2883.35 202738 0 0 ---- ----
05/23 19:00 2883.33 202604 0 0 ---- ----
05/23 20:00 2883.31 202471 0 0 ---- ----
05/23 21:00 2883.35 ---- ---- 0 ---- ----
05/23 22:00 ---- ---- ---- 0 ---- ----
05/23 23:00 ---- ---- ---- 0 ---- ----